Ponta Delgada, Azores

9:23 PM AZOT on November 27, 2014 (GMT -0100)
Lagoa | Change Station
CLOSE
Current Station
Personal Weather Station
Location: Lagoa, AZORES
Elevation: 289 ft
Nearby Weather Stations

Elev 289 ft 37.74 °N, 25.56 °W | Updated 16 seconds ago

Mostly Cloudy
Mostly Cloudy
58.3 °F
Feels Like 58.3 °F
N
1.1
Wind Variable Wind from SW
Gusts 0.0 mph

Today
High -- | Low -- °F
--% Chance of Precip.
Yesterday
High -- | Low -- °F
Precip. -- in
7:35 AM 5:28 PM
Waxing Crescent, 33% visible
Pressure 29.65 in
Visibility 6.2 miles
Clouds Few 2000 ft
Mostly Cloudy 3500 ft
Dew Point 58 °F
Humidity 99%
Rainfall 0.00 in
Snow Depth Not available.
UV 0 out of 12
Pollen Not available.
Air Quality Not available.
Flu Activity Not available.
METAR LPPD 272200Z 31013G27KT 270V360 9999 FEW020 BKN035 15/09 Q1004

More Conditions Fewer Conditions

Pressure 29.65 in
Visibility 6.2 miles
Clouds Few 2000 ft
Mostly Cloudy 3500 ft
Dew Point 58 °F
Humidity 99%
Rainfall 0.00 in
Snow Depth Not available.
UV 0 out of 12
Pollen Not available.
Air Quality Not available.
Flu Activity Not available.
METAR LPPD 272200Z 31013G27KT 270V360 9999 FEW020 BKN035 15/09 Q1004

More Conditions Fewer Conditions

10-Day Weather Forecast

Almanac

Astronomy

Nov. 27, 2014 Rise Set
Actual Time
Civil Twilight
Nautical Twilight
Astronomical Twilight
Moon
Length of Visible Light
Length of Day
Tomorrow will be .
, % of the Moon is Illuminated

Today's Extremes

Country Highs Country Lows

Community

WunderPhotos

Upload Photos

1,774,124 photos uploaded!

WunderBlogs® & News

Nearby

Air Quality

  Air Quality AQ Index Pollutant
Not available.

Snow Depth

Station Depth Elevation

Earthquake Activity

City Distance Mag. Time & Date
Minimum magnitude displayed is 2.5.

Coastal Water Temperatures

Place Temperature

Nearby Weather Stations